Time;durP1;ratioP1;P1;durP2;ratioP2;P2;SDS_P1;SDS_P2;PMS_P1;PMS_P2;Temp;Humidity;BMP_temperature;BMP_pressure;BME280_temperature;BME280_humidity;BME280_pressure;Samples;Min_cycle;Max_cycle;Signal;HPM_P1;HPM_P2
2023/12/31 00:02:11;;;;;;;2.00;0.70;;;9.20;99.90;;;;;;5025623;28;20113;-83
2023/12/31 00:04:37;;;;;;;3.43;0.70;;;9.30;99.90;;;;;;5007680;28;20026;-83
2023/12/31 00:07:03;;;;;;;2.63;0.77;;;9.30;99.90;;;;;;5025666;28;20049;-83
2023/12/31 00:09:29;;;;;;;3.87;0.60;;;9.30;99.90;;;;;;5007291;28;20030;-83
2023/12/31 00:11:54;;;;;;;1.17;0.47;;;9.30;99.90;;;;;;5008107;28;20030;-83
2023/12/31 00:14:20;;;;;;;1.70;0.60;;;9.40;99.90;;;;;;5006877;28;20028;-83
2023/12/31 00:16:46;;;;;;;3.80;0.60;;;9.40;99.90;;;;;;5007568;28;20022;-83
2023/12/31 00:19:11;;;;;;;2.13;0.60;;;9.40;99.90;;;;;;5007485;28;20375;-82
2023/12/31 00:21:42;;;;;;;2.07;0.60;;;9.40;99.90;;;;;;5007410;28;20021;-83
2023/12/31 00:24:08;;;;;;;2.43;0.63;;;9.40;99.90;;;;;;5007566;28;20025;-82
2023/12/31 00:26:33;;;;;;;2.53;0.50;;;9.50;99.90;;;;;;5007060;28;20084;-82
2023/12/31 00:28:59;;;;;;;2.50;0.70;;;9.50;99.90;;;;;;5007638;28;20026;-83
2023/12/31 00:31:25;;;;;;;2.17;0.50;;;9.50;99.90;;;;;;5007195;28;20060;-82
2023/12/31 00:33:56;;;;;;;2.97;0.60;;;9.50;99.90;;;;;;5007718;28;20026;-83
2023/12/31 00:36:22;;;;;;;1.27;0.60;;;9.50;99.90;;;;;;5006628;28;20029;-82
2023/12/31 00:38:48;;;;;;;3.57;0.53;;;9.50;99.90;;;;;;5007259;28;20398;-82
2023/12/31 00:41:15;;;;;;;3.77;0.73;;;9.50;99.90;;;;;;4991426;28;20038;-82
2023/12/31 00:43:41;;;;;;;5.00;0.90;;;9.50;99.90;;;;;;5006766;28;20029;-82
2023/12/31 00:46:06;;;;;;;2.83;0.60;;;9.50;99.90;;;;;;5007284;28;20038;-83
2023/12/31 00:48:32;;;;;;;2.87;0.60;;;9.60;99.90;;;;;;5006588;28;20128;-83
2023/12/31 00:51:01;;;;;;;2.50;0.50;;;9.60;99.90;;;;;;5024805;28;20029;-83
2023/12/31 00:53:26;;;;;;;2.10;0.50;;;9.60;99.90;;;;;;5006956;28;20018;-83
2023/12/31 00:55:52;;;;;;;2.80;0.63;;;9.60;99.90;;;;;;5006868;28;20066;-83
2023/12/31 00:58:18;;;;;;;2.00;0.40;;;9.70;99.90;;;;;;5006665;28;20064;-83
2023/12/31 01:00:44;;;;;;;2.70;0.40;;;9.70;99.90;;;;;;5024523;28;20077;-83
2023/12/31 01:03:09;;;;;;;2.00;0.40;;;9.70;99.90;;;;;;5025057;28;20376;-83
2023/12/31 01:05:35;;;;;;;5.07;0.63;;;9.70;99.90;;;;;;5006177;28;20064;-83
2023/12/31 01:08:01;;;;;;;4.73;0.77;;;9.70;99.90;;;;;;5007251;28;20106;-83
2023/12/31 01:10:27;;;;;;;3.37;0.70;;;9.70;99.90;;;;;;5006141;28;20022;-80
2023/12/31 01:12:53;;;;;;;2.73;0.50;;;9.80;99.90;;;;;;5006163;28;20061;-82
2023/12/31 01:15:18;;;;;;;2.08;0.60;;;9.80;99.90;;;;;;5006716;28;20022;-81
2023/12/31 01:17:44;;;;;;;4.00;0.90;;;9.80;99.90;;;;;;5006666;28;20018;-81
2023/12/31 01:20:10;;;;;;;2.37;0.60;;;9.90;99.90;;;;;;5006531;28;20057;-82
2023/12/31 01:22:36;;;;;;;1.27;0.60;;;9.90;99.90;;;;;;5006194;28;20133;-82
2023/12/31 01:25:03;;;;;;;2.57;0.40;;;9.90;99.90;;;;;;5006868;28;20508;-82
2023/12/31 01:27:29;;;;;;;2.05;0.40;;;9.90;99.90;;;;;;5023253;28;20030;-82
2023/12/31 01:29:54;;;;;;;2.83;0.50;;;9.90;99.90;;;;;;5006452;28;20124;-81
2023/12/31 01:32:20;;;;;;;2.57;0.50;;;9.90;99.90;;;;;;5006330;28;20069;-81
2023/12/31 01:34:46;;;;;;;1.43;0.40;;;9.90;99.90;;;;;;5005746;28;20042;-82
2023/12/31 01:37:12;;;;;;;3.67;0.50;;;9.90;99.90;;;;;;5006385;28;20029;-82
2023/12/31 01:39:38;;;;;;;1.70;0.70;;;9.90;99.90;;;;;;5005964;28;20560;-82
2023/12/31 01:42:03;;;;;;;1.17;0.37;;;9.90;99.90;;;;;;5023751;28;20026;-82
2023/12/31 01:44:29;;;;;;;1.33;0.33;;;9.90;99.90;;;;;;5005719;28;20129;-83
2023/12/31 01:46:55;;;;;;;4.20;0.60;;;9.90;99.90;;;;;;5006273;28;20066;-83
2023/12/31 01:49:21;;;;;;;1.80;0.50;;;9.90;99.90;;;;;;5023201;28;20030;-82
2023/12/31 01:51:47;;;;;;;1.40;0.60;;;9.90;99.90;;;;;;5023627;28;20152;-83
2023/12/31 01:54:14;;;;;;;1.57;0.40;;;9.90;99.90;;;;;;5024042;28;20631;-82
2023/12/31 01:56:40;;;;;;;1.53;0.40;;;9.90;99.90;;;;;;5005445;28;20057;-82
2023/12/31 01:59:06;;;;;;;1.57;0.40;;;9.90;99.90;;;;;;5023465;28;20033;-82
2023/12/31 02:01:35;;;;;;;1.83;0.40;;;9.90;99.90;;;;;;5005257;28;20125;-82
2023/12/31 02:04:00;;;;;;;1.30;0.60;;;9.80;99.90;;;;;;5005824;28;20030;-82
2023/12/31 02:06:26;;;;;;;2.20;0.50;;;9.80;99.90;;;;;;5005559;28;20040;-82
2023/12/31 02:08:52;;;;;;;3.00;0.33;;;9.80;99.90;;;;;;5023478;28;20125;-81
2023/12/31 02:11:18;;;;;;;2.27;0.50;;;9.80;99.90;;;;;;5005568;28;20029;-82
2023/12/31 02:13:44;;;;;;;1.70;0.53;;;9.70;99.90;;;;;;5005460;28;20048;-82
2023/12/31 02:16:14;;;;;;;2.10;0.53;;;9.70;99.90;;;;;;5005477;28;20024;-82
2023/12/31 02:18:40;;;;;;;1.90;0.40;;;9.70;99.90;;;;;;5004871;28;21005;-82
2023/12/31 02:21:06;;;;;;;1.27;0.50;;;9.70;99.90;;;;;;5005688;28;20056;-82
2023/12/31 02:23:32;;;;;;;2.23;0.50;;;9.60;99.90;;;;;;5004394;28;20034;-82
2023/12/31 02:26:17;;;;;;;2.10;0.60;;;9.60;99.90;;;;;;5022740;28;20048;-82
2023/12/31 02:28:43;;;;;;;0.93;0.45;;;9.60;99.90;;;;;;5005454;28;20093;-82
2023/12/31 02:31:09;;;;;;;4.00;0.50;;;9.50;99.90;;;;;;5022538;28;20061;-82
2023/12/31 02:33:34;;;;;;;1.50;0.40;;;9.50;99.90;;;;;;5005219;28;20010;-82
2023/12/31 02:36:00;;;;;;;2.13;0.60;;;9.50;99.90;;;;;;5004073;28;20014;-81
2023/12/31 02:38:26;;;;;;;1.97;0.60;;;9.50;99.90;;;;;;5004994;28;20053;-82
2023/12/31 02:40:52;;;;;;;1.60;0.70;;;9.50;99.90;;;;;;5004556;28;20022;-82
2023/12/31 02:43:17;;;;;;;1.40;0.57;;;9.50;99.90;;;;;;5004972;28;20014;-81
2023/12/31 02:45:43;;;;;;;1.50;0.80;;;9.40;99.90;;;;;;5022729;28;20053;-82
2023/12/31 02:48:09;;;;;;;3.87;1.27;;;9.40;99.90;;;;;;5004703;28;20063;-81
2023/12/31 02:50:34;;;;;;;3.80;0.73;;;9.40;99.90;;;;;;5005301;28;20370;-82
2023/12/31 02:53:00;;;;;;;3.73;1.03;;;9.40;99.90;;;;;;5004537;28;20021;-82
2023/12/31 02:55:26;;;;;;;2.57;0.80;;;9.40;99.90;;;;;;5004660;28;20018;-82
2023/12/31 02:57:51;;;;;;;2.80;0.80;;;9.40;99.90;;;;;;5022097;28;20033;-80
2023/12/31 03:00:17;;;;;;;2.50;0.80;;;9.40;99.90;;;;;;5004477;28;20053;-82
2023/12/31 03:02:43;;;;;;;1.97;0.60;;;9.30;99.90;;;;;;5004809;28;20527;-82
2023/12/31 03:05:11;;;;;;;2.20;0.80;;;9.30;99.90;;;;;;5004440;28;20033;-82
2023/12/31 03:07:37;;;;;;;1.43;0.60;;;9.30;99.90;;;;;;5022575;28;20057;-82
2023/12/31 03:10:03;;;;;;;1.70;0.80;;;9.30;99.90;;;;;;5003909;28;20479;-82
2023/12/31 03:12:28;;;;;;;3.93;0.83;;;9.30;99.90;;;;;;5004369;28;20442;-82
2023/12/31 03:14:55;;;;;;;1.93;0.70;;;9.30;99.90;;;;;;5021986;28;20034;-83
2023/12/31 03:17:22;;;;;;;3.63;0.70;;;9.30;99.90;;;;;;5004344;28;20022;-83
2023/12/31 03:19:48;;;;;;;1.93;0.50;;;9.30;99.90;;;;;;5004402;28;20111;-82
2023/12/31 03:22:14;;;;;;;1.60;0.60;;;9.30;99.90;;;;;;5004242;28;20018;-81
2023/12/31 03:24:42;;;;;;;1.87;0.73;;;9.30;99.90;;;;;;5003848;28;20038;-82
2023/12/31 03:27:09;;;;;;;1.67;0.70;;;9.30;99.90;;;;;;5021744;28;20037;-82
2023/12/31 03:29:35;;;;;;;2.57;0.60;;;9.40;99.90;;;;;;5004500;28;20464;-82
2023/12/31 03:32:01;;;;;;;1.57;0.70;;;9.30;99.90;;;;;;5004144;28;20029;-82
2023/12/31 03:34:26;;;;;;;4.33;0.80;;;9.30;99.90;;;;;;5002697;28;20022;-81
2023/12/31 03:36:52;;;;;;;2.40;0.70;;;9.30;99.90;;;;;;5004235;28;20461;-82
2023/12/31 03:39:18;;;;;;;2.57;0.60;;;9.30;99.90;;;;;;5003827;28;20042;-82
2023/12/31 03:41:44;;;;;;;2.47;0.70;;;9.40;99.90;;;;;;5004001;28;20022;-82
2023/12/31 03:44:09;;;;;;;2.03;0.70;;;9.40;99.90;;;;;;5021546;28;20025;-81
2023/12/31 03:46:35;;;;;;;1.20;0.50;;;9.40;99.90;;;;;;5004070;28;20030;-82
2023/12/31 03:49:01;;;;;;;2.90;0.60;;;9.30;99.90;;;;;;5003379;28;20089;-82
2023/12/31 03:51:27;;;;;;;2.27;0.80;;;9.40;99.90;;;;;;5021939;28;20029;-82
2023/12/31 03:53:52;;;;;;;4.30;0.60;;;9.30;99.90;;;;;;5003725;28;20022;-82
2023/12/31 03:56:18;;;;;;;3.23;0.70;;;9.40;99.90;;;;;;5003810;28;20030;-82
2023/12/31 03:58:44;;;;;;;2.40;0.50;;;9.30;99.90;;;;;;5003727;28;20029;-82
2023/12/31 04:01:09;;;;;;;1.33;0.60;;;9.40;99.90;;;;;;5003845;28;20041;-81
2023/12/31 04:03:35;;;;;;;5.47;0.60;;;9.30;99.90;;;;;;5004026;28;20041;-82
2023/12/31 04:06:01;;;;;;;2.70;1.07;;;9.30;99.90;;;;;;5003479;28;20121;-82
2023/12/31 04:08:26;;;;;;;2.80;0.60;;;9.30;99.90;;;;;;5004162;28;20022;-81
2023/12/31 04:10:52;;;;;;;2.13;0.70;;;9.30;99.90;;;;;;5003515;28;20022;-82
2023/12/31 04:13:18;;;;;;;3.97;0.60;;;9.30;99.90;;;;;;5003612;28;20030;-82
2023/12/31 04:15:44;;;;;;;3.47;1.10;;;9.30;99.90;;;;;;5003950;28;20018;-82
2023/12/31 04:18:10;;;;;;;1.87;0.60;;;9.30;99.90;;;;;;5003665;28;20022;-83
2023/12/31 04:20:35;;;;;;;1.83;0.70;;;9.30;99.90;;;;;;5003669;28;20014;-82
2023/12/31 04:23:01;;;;;;;1.83;0.70;;;9.30;99.90;;;;;;5003493;28;20137;-82
2023/12/31 04:25:27;;;;;;;1.63;0.70;;;9.30;99.90;;;;;;5003451;28;20025;-83
2023/12/31 04:27:52;;;;;;;2.27;0.70;;;9.30;99.90;;;;;;5003187;28;20048;-83
2023/12/31 04:30:22;;;;;;;2.63;0.77;;;9.30;99.90;;;;;;5003723;28;20014;-83
2023/12/31 04:32:48;;;;;;;1.30;0.50;;;9.30;99.90;;;;;;5003218;28;20026;-82
2023/12/31 04:35:14;;;;;;;2.13;0.73;;;9.30;99.90;;;;;;5003029;28;20026;-82
2023/12/31 04:37:39;;;;;;;3.83;0.83;;;9.30;99.90;;;;;;5003725;28;20093;-83
2023/12/31 04:40:06;;;;;;;1.43;0.53;;;9.30;99.90;;;;;;5002935;28;20038;-82
2023/12/31 04:42:31;;;;;;;2.93;0.90;;;9.30;99.90;;;;;;5003269;28;20026;-82
2023/12/31 04:44:59;;;;;;;4.33;1.10;;;9.30;99.90;;;;;;5003271;28;20341;-83
2023/12/31 04:47:25;;;;;;;2.67;0.80;;;9.30;99.90;;;;;;5006523;28;20038;-83
2023/12/31 04:49:51;;;;;;;1.60;0.80;;;9.30;99.90;;;;;;5006859;28;20037;-82
2023/12/31 04:52:16;;;;;;;2.80;0.80;;;9.30;99.90;;;;;;5007056;28;20022;-82
2023/12/31 04:54:42;;;;;;;2.37;0.80;;;9.30;99.90;;;;;;5006646;28;20041;-83
2023/12/31 04:57:08;;;;;;;2.50;0.60;;;9.30;99.90;;;;;;5007008;28;20033;-82
2023/12/31 04:59:33;;;;;;;2.73;0.90;;;9.30;99.90;;;;;;5006997;28;20040;-82
2023/12/31 05:01:59;;;;;;;3.27;0.60;;;9.30;99.90;;;;;;5024291;28;20549;-82
2023/12/31 05:04:25;;;;;;;4.07;0.80;;;9.30;99.90;;;;;;5006589;28;20034;-83
2023/12/31 05:06:50;;;;;;;1.90;0.70;;;9.30;99.90;;;;;;5006772;28;20034;-82
2023/12/31 05:09:16;;;;;;;3.10;0.90;;;9.30;99.90;;;;;;5006377;28;20022;-82
2023/12/31 05:11:42;;;;;;;1.77;0.60;;;9.30;99.90;;;;;;5006826;28;20631;-81
2023/12/31 05:14:07;;;;;;;4.77;0.90;;;9.30;99.90;;;;;;5006746;28;20093;-82
2023/12/31 05:16:33;;;;;;;2.57;0.93;;;9.20;99.90;;;;;;5006642;28;20014;-81
2023/12/31 05:19:00;;;;;;;4.57;1.00;;;9.20;99.90;;;;;;5006198;28;20026;-81
2023/12/31 05:21:27;;;;;;;2.13;0.80;;;9.20;99.90;;;;;;5006653;28;20524;-81
2023/12/31 05:23:52;;;;;;;2.30;0.90;;;9.20;99.90;;;;;;5006324;28;20090;-83
2023/12/31 05:26:18;;;;;;;3.00;0.90;;;9.20;99.90;;;;;;5006529;28;20431;-81
2023/12/31 05:28:44;;;;;;;4.40;0.93;;;9.20;99.90;;;;;;5006493;28;20041;-81
2023/12/31 05:31:12;;;;;;;3.57;1.00;;;9.20;99.90;;;;;;5006264;28;20026;-81
2023/12/31 05:33:40;;;;;;;2.73;0.63;;;9.20;99.90;;;;;;5006083;28;20036;-82
2023/12/31 05:36:06;;;;;;;3.03;1.00;;;9.20;99.90;;;;;;5005548;28;20018;-82
2023/12/31 05:38:32;;;;;;;3.87;0.80;;;9.20;99.90;;;;;;5003060;28;20039;-82
2023/12/31 05:40:57;;;;;;;2.73;1.00;;;9.20;99.90;;;;;;5002916;28;20094;-82
2023/12/31 05:43:23;;;;;;;1.67;0.77;;;9.20;99.90;;;;;;5004409;28;20054;-83
2023/12/31 05:45:49;;;;;;;4.03;1.17;;;9.20;99.90;;;;;;5003007;28;20018;-82
2023/12/31 05:48:15;;;;;;;1.87;0.80;;;9.10;99.90;;;;;;5004169;28;20436;-82
2023/12/31 05:50:41;;;;;;;4.97;1.10;;;9.20;99.90;;;;;;5002822;28;20022;-82
2023/12/31 05:53:07;;;;;;;3.47;1.30;;;9.10;99.90;;;;;;5002134;28;20050;-82
2023/12/31 05:55:32;;;;;;;3.73;1.03;;;9.20;99.90;;;;;;5002719;28;20026;-82
2023/12/31 05:57:58;;;;;;;4.50;1.50;;;9.10;99.90;;;;;;5001361;28;20102;-82
2023/12/31 06:00:24;;;;;;;3.07;1.30;;;9.20;99.90;;;;;;5002502;28;20022;-82
2023/12/31 06:02:50;;;;;;;4.63;2.07;;;9.20;99.90;;;;;;4998682;28;20023;-81
2023/12/31 06:05:17;;;;;;;5.10;1.40;;;9.20;99.90;;;;;;4983715;28;20494;-82
2023/12/31 06:07:43;;;;;;;4.93;1.83;;;9.20;99.90;;;;;;4981979;28;20034;-82
2023/12/31 06:10:09;;;;;;;4.67;1.83;;;9.20;99.90;;;;;;4982527;28;20471;-82
2023/12/31 06:12:35;;;;;;;3.87;1.77;;;9.30;99.90;;;;;;4982840;28;20023;-81
2023/12/31 06:15:05;;;;;;;4.87;2.13;;;9.30;99.90;;;;;;4983989;28;20042;-82
2023/12/31 06:17:30;;;;;;;5.13;1.60;;;9.30;99.90;;;;;;4982647;28;20113;-82
2023/12/31 06:19:56;;;;;;;3.90;1.97;;;9.30;99.90;;;;;;4984333;28;20019;-82
2023/12/31 06:22:22;;;;;;;3.70;1.73;;;9.40;99.90;;;;;;4984026;28;20035;-81
2023/12/31 06:24:48;;;;;;;6.93;2.20;;;9.30;99.90;;;;;;5009257;28;20147;-81
2023/12/31 06:27:13;;;;;;;5.40;1.80;;;9.40;99.90;;;;;;4998894;28;20062;-81
2023/12/31 06:29:39;;;;;;;5.23;2.03;;;9.40;99.90;;;;;;4998874;28;20387;-81
2023/12/31 06:32:05;;;;;;;6.37;2.07;;;9.40;99.90;;;;;;4998090;28;20037;-81
2023/12/31 06:34:30;;;;;;;5.07;1.97;;;9.40;99.90;;;;;;4998348;28;20038;-82
2023/12/31 06:36:56;;;;;;;7.57;1.97;;;9.40;99.90;;;;;;4998455;28;20026;-82
2023/12/31 06:39:22;;;;;;;3.93;1.93;;;9.40;99.90;;;;;;4994161;28;20055;-82
2023/12/31 06:41:48;;;;;;;4.57;2.00;;;9.40;99.90;;;;;;4986335;28;20110;-82
2023/12/31 06:44:14;;;;;;;4.57;1.97;;;9.40;99.90;;;;;;5021180;28;20030;-81
2023/12/31 06:46:40;;;;;;;4.67;1.77;;;9.40;99.90;;;;;;5009588;28;20120;-81
2023/12/31 06:49:06;;;;;;;4.80;1.80;;;9.40;99.90;;;;;;5004291;28;20025;-82
2023/12/31 06:51:31;;;;;;;6.93;2.60;;;9.40;99.90;;;;;;5004564;28;20040;-83
2023/12/31 06:53:58;;;;;;;4.70;2.10;;;9.40;99.90;;;;;;5004409;28;20093;-82
2023/12/31 06:56:24;;;;;;;4.63;2.23;;;9.40;99.90;;;;;;5004725;28;20041;-82
2023/12/31 06:58:50;;;;;;;4.83;2.23;;;9.40;99.90;;;;;;5004385;28;20390;-82
2023/12/31 07:01:16;;;;;;;6.40;2.20;;;9.40;99.90;;;;;;5004610;28;20423;-83
2023/12/31 07:03:42;;;;;;;4.53;1.80;;;9.40;99.90;;;;;;5004522;28;20022;-83
2023/12/31 07:06:08;;;;;;;5.97;1.93;;;9.40;99.90;;;;;;5021841;28;20041;-82
2023/12/31 07:08:34;;;;;;;4.60;1.87;;;9.30;99.90;;;;;;5022439;28;20053;-83
2023/12/31 07:11:00;;;;;;;5.00;1.80;;;9.30;99.90;;;;;;5022037;28;20478;-82
2023/12/31 07:13:26;;;;;;;3.73;2.03;;;9.30;99.90;;;;;;5004580;28;20033;-82
2023/12/31 07:15:51;;;;;;;4.03;2.00;;;9.30;99.90;;;;;;5021965;28;20025;-83
2023/12/31 07:18:17;;;;;;;4.57;2.23;;;9.30;99.90;;;;;;5004396;28;20022;-82
2023/12/31 07:20:43;;;;;;;4.80;2.27;;;9.30;99.90;;;;;;5021594;28;20030;-83
2023/12/31 07:23:08;;;;;;;4.37;2.10;;;9.30;99.90;;;;;;5004420;28;20014;-83
2023/12/31 07:25:36;;;;;;;3.93;1.87;;;9.30;99.90;;;;;;5013954;28;20388;-82
2023/12/31 07:28:01;;;;;;;5.47;1.83;;;9.30;99.90;;;;;;5023185;28;20042;-82
2023/12/31 07:30:27;;;;;;;3.53;1.60;;;9.30;99.90;;;;;;5023889;28;20080;-82
2023/12/31 07:32:53;;;;;;;3.47;1.80;;;9.30;99.90;;;;;;5041763;28;20449;-82
2023/12/31 07:35:18;;;;;;;5.10;2.33;;;9.30;99.90;;;;;;5023504;28;20373;-82
2023/12/31 07:37:44;;;;;;;5.17;1.90;;;9.40;99.90;;;;;;5023352;28;20464;-82
2023/12/31 07:40:10;;;;;;;4.53;1.90;;;9.40;99.90;;;;;;5023858;28;20096;-80
2023/12/31 07:42:40;;;;;;;7.10;2.13;;;9.40;99.90;;;;;;5013306;28;20045;-80
2023/12/31 07:45:06;;;;;;;4.87;1.60;;;9.40;99.90;;;;;;5003027;28;20029;-80
2023/12/31 07:47:35;;;;;;;5.20;1.87;;;9.40;99.90;;;;;;5003361;28;20136;-81
2023/12/31 07:50:02;;;;;;;4.27;1.80;;;9.40;99.90;;;;;;5003258;28;20037;-81
2023/12/31 07:52:28;;;;;;;3.63;2.00;;;9.40;99.90;;;;;;5001168;28;20025;-80
2023/12/31 07:54:54;;;;;;;4.43;1.77;;;9.50;99.90;;;;;;5002907;28;20030;-81
2023/12/31 07:57:19;;;;;;;5.53;1.70;;;9.50;99.90;;;;;;5003435;28;20061;-82
2023/12/31 07:59:46;;;;;;;6.60;2.23;;;9.50;99.90;;;;;;5003658;28;20083;-80
2023/12/31 08:02:12;;;;;;;4.83;1.80;;;9.50;99.90;;;;;;5020672;28;20029;-80
2023/12/31 08:04:38;;;;;;;3.50;1.40;;;9.50;99.90;;;;;;5002720;28;20053;-81
2023/12/31 08:07:04;;;;;;;4.63;1.80;;;9.50;99.90;;;;;;5002448;28;20037;-81
2023/12/31 08:09:30;;;;;;;3.77;1.60;;;9.60;99.90;;;;;;5002719;28;20018;-81
2023/12/31 08:11:55;;;;;;;3.73;1.70;;;9.60;99.90;;;;;;5002939;28;20026;-81
2023/12/31 08:14:22;;;;;;;5.77;2.10;;;9.60;99.90;;;;;;5000931;28;21858;-80
2023/12/31 08:16:48;;;;;;;5.13;2.20;;;9.60;99.90;;;;;;5002176;28;20041;-81
2023/12/31 08:19:14;;;;;;;4.87;2.27;;;9.60;99.90;;;;;;5001200;28;20128;-80
2023/12/31 08:21:40;;;;;;;5.80;2.27;;;9.60;99.90;;;;;;5021232;28;20049;-81
2023/12/31 08:24:06;;;;;;;4.10;2.13;;;9.60;99.90;;;;;;5025796;28;20021;-81
2023/12/31 08:26:32;;;;;;;4.80;2.20;;;9.60;99.90;;;;;;5022961;28;20107;-81
2023/12/31 08:28:59;;;;;;;5.77;2.50;;;9.70;99.90;;;;;;5026852;28;20077;-80
2023/12/31 08:31:26;;;;;;;5.87;2.40;;;9.70;99.90;;;;;;5027742;28;20022;-82
2023/12/31 08:33:51;;;;;;;6.10;2.57;;;9.70;99.90;;;;;;5005275;28;20050;-82
2023/12/31 08:36:17;;;;;;;4.77;2.43;;;9.70;99.90;;;;;;5026302;28;20034;-82
2023/12/31 08:38:43;;;;;;;5.87;2.77;;;9.70;99.90;;;;;;5044665;28;20084;-81
2023/12/31 08:41:09;;;;;;;6.03;2.87;;;9.80;99.90;;;;;;5026808;28;20021;-82
2023/12/31 08:43:35;;;;;;;4.40;2.07;;;9.80;99.90;;;;;;5026748;28;20080;-81
2023/12/31 08:46:01;;;;;;;6.13;2.53;;;9.90;99.90;;;;;;5026423;28;20029;-81
2023/12/31 08:48:26;;;;;;;6.00;2.50;;;9.90;99.90;;;;;;5027074;28;20049;-82
2023/12/31 08:50:52;;;;;;;6.55;2.45;;;9.90;99.90;;;;;;5044489;28;20021;-81
2023/12/31 08:53:19;;;;;;;6.22;2.22;;;9.90;99.90;;;;;;5026699;28;20032;-85
2023/12/31 08:55:44;;;;;;;5.40;2.50;;;10.00;99.90;;;;;;5026913;28;20112;-85
2023/12/31 08:58:12;;;;;;;5.93;2.25;;;10.00;99.90;;;;;;5031216;28;20355;-82
2023/12/31 09:00:38;;;;;;;6.03;2.13;;;10.00;99.90;;;;;;5006643;28;20034;-81
2023/12/31 09:03:04;;;;;;;6.63;2.40;;;10.10;99.90;;;;;;5006452;28;20026;-81
2023/12/31 09:05:30;;;;;;;5.47;2.80;;;10.10;99.90;;;;;;5006755;28;20114;-81
2023/12/31 09:07:56;;;;;;;6.43;2.45;;;10.20;99.90;;;;;;5006642;28;20033;-82
2023/12/31 09:10:21;;;;;;;5.55;2.60;;;10.20;99.90;;;;;;5006496;28;20037;-82
2023/12/31 09:12:47;;;;;;;4.37;2.00;;;10.20;99.90;;;;;;5005863;28;20030;-82
2023/12/31 09:15:13;;;;;;;6.50;2.87;;;10.30;99.90;;;;;;5006266;28;20398;-81
2023/12/31 09:17:39;;;;;;;3.45;1.75;;;10.30;99.90;;;;;;5006815;28;20142;-82
2023/12/31 09:20:06;;;;;;;5.97;2.28;;;10.40;99.90;;;;;;5006328;28;20022;-82
2023/12/31 09:22:35;;;;;;;5.90;2.45;;;10.40;99.90;;;;;;5006880;28;20033;-82
2023/12/31 09:25:01;;;;;;;5.00;2.22;;;10.50;99.90;;;;;;5006249;28;20022;-82
2023/12/31 09:27:27;;;;;;;4.43;2.28;;;10.50;99.90;;;;;;5006346;28;20038;-81
2023/12/31 09:29:53;;;;;;;5.55;2.05;;;10.50;99.90;;;;;;5006420;28;20022;-81
2023/12/31 09:32:18;;;;;;;5.35;2.53;;;10.60;99.90;;;;;;4988710;28;20030;-80
2023/12/31 09:34:44;;;;;;;4.95;2.10;;;10.60;99.90;;;;;;5005686;28;20030;-80
2023/12/31 09:37:11;;;;;;;7.82;2.33;;;10.60;99.90;;;;;;5005938;28;20045;-82
2023/12/31 09:39:37;;;;;;;8.95;3.03;;;10.60;99.90;;;;;;5006137;28;20092;-80
2023/12/31 09:42:12;;;;;;;3.97;2.22;;;10.70;99.90;;;;;;5006113;28;20390;-81
2023/12/31 09:44:38;;;;;;;6.65;3.22;;;10.60;99.90;;;;;;5006302;28;20394;-81
2023/12/31 09:47:09;;;;;;;4.32;1.90;;;10.60;99.90;;;;;;5005942;28;20107;-81
2023/12/31 09:49:36;;;;;;;5.55;2.08;;;10.60;99.90;;;;;;5005677;28;20030;-81
2023/12/31 09:52:07;;;;;;;3.58;1.75;;;10.50;99.90;;;;;;5023851;28;20030;-81
2023/12/31 09:54:34;;;;;;;3.15;1.50;;;10.50;99.90;;;;;;5022632;28;20041;-80
2023/12/31 09:57:01;;;;;;;4.05;1.90;;;10.50;99.90;;;;;;5023608;28;20026;-80
2023/12/31 09:59:28;;;;;;;2.92;1.05;;;10.50;99.90;;;;;;5005738;28;20033;-83
2023/12/31 10:01:58;;;;;;;2.25;1.25;;;10.60;99.90;;;;;;5023082;28;20022;-82
2023/12/31 10:04:23;;;;;;;2.53;1.10;;;10.60;99.90;;;;;;5023505;28;20029;-84
2023/12/31 10:06:50;;;;;;;1.60;0.70;;;10.60;99.80;;;;;;5005322;28;20030;-80
2023/12/31 10:09:20;;;;;;;2.83;0.90;;;10.70;99.90;;;;;;5023216;28;20076;-84
2023/12/31 10:11:46;;;;;;;1.85;0.88;;;10.70;99.80;;;;;;5005410;28;20026;-78
2023/12/31 10:14:13;;;;;;;2.40;1.05;;;10.70;99.60;;;;;;5005694;28;20080;-81
2023/12/31 10:16:43;;;;;;;2.85;0.82;;;10.70;99.50;;;;;;5004899;28;20029;-79
2023/12/31 10:19:13;;;;;;;2.15;0.82;;;10.70;99.40;;;;;;5005045;28;20029;-79
2023/12/31 10:21:44;;;;;;;3.10;0.80;;;10.70;99.30;;;;;;5005603;28;20010;-78
2023/12/31 10:24:10;;;;;;;3.40;0.70;;;10.70;99.20;;;;;;5004493;28;20025;-78
2023/12/31 10:26:36;;;;;;;5.70;0.90;;;10.70;98.90;;;;;;5004848;28;20064;-78
2023/12/31 10:29:05;;;;;;;2.00;0.60;;;10.70;99.10;;;;;;5022873;28;20025;-78
2023/12/31 10:31:32;;;;;;;3.47;1.00;;;10.70;99.50;;;;;;5005415;28;20063;-79
2023/12/31 10:34:13;;;;;;;3.40;1.33;;;10.70;99.70;;;;;;5022851;28;20022;-78
2023/12/31 10:36:39;;;;;;;2.70;0.80;;;10.60;99.70;;;;;;5022541;28;20028;-80
2023/12/31 10:39:05;;;;;;;1.92;0.90;;;10.70;99.80;;;;;;5004905;28;20054;-79
2023/12/31 10:41:34;;;;;;;3.10;1.00;;;10.70;99.70;;;;;;5004946;28;20018;-79
2023/12/31 10:44:03;;;;;;;3.22;0.80;;;10.70;99.90;;;;;;5022612;28;20022;-79
2023/12/31 10:46:32;;;;;;;2.30;0.80;;;10.70;99.80;;;;;;5003937;28;20041;-79
2023/12/31 10:48:58;;;;;;;2.70;1.08;;;10.60;99.70;;;;;;5004322;28;20030;-79
2023/12/31 10:51:23;;;;;;;3.53;0.98;;;10.60;99.80;;;;;;5004623;28;20104;-79
2023/12/31 10:53:51;;;;;;;4.78;0.73;;;10.70;99.40;;;;;;5004502;28;20021;-79
2023/12/31 10:56:18;;;;;;;1.42;0.60;;;10.70;99.50;;;;;;5022809;28;20022;-80
2023/12/31 10:58:45;;;;;;;2.47;0.60;;;10.80;99.40;;;;;;5004496;28;20025;-80
2023/12/31 11:01:12;;;;;;;2.47;0.73;;;10.80;99.40;;;;;;5004615;28;20053;-79
2023/12/31 11:03:41;;;;;;;3.47;0.73;;;10.80;98.90;;;;;;5004432;28;20095;-82
2023/12/31 11:06:08;;;;;;;3.42;0.70;;;10.80;98.80;;;;;;5004799;28;20022;-87
2023/12/31 11:08:34;;;;;;;4.07;0.90;;;10.80;99.00;;;;;;5004214;28;20025;-81
2023/12/31 11:11:00;;;;;;;4.20;1.48;;;10.70;99.90;;;;;;5022079;28;20509;-81
2023/12/31 11:13:27;;;;;;;3.08;0.70;;;10.70;99.90;;;;;;5022551;28;20033;-84
2023/12/31 11:15:55;;;;;;;2.38;0.70;;;10.60;99.90;;;;;;5003494;28;20070;-85
2023/12/31 11:18:24;;;;;;;2.85;0.82;;;10.50;99.90;;;;;;5004023;28;20046;-83
2023/12/31 11:21:13;;;;;;;3.97;1.70;;;10.30;99.90;;;;;;5004041;28;20022;-84
2023/12/31 11:24:09;;;;;;;3.07;1.07;;;10.20;99.90;;;;;;5004217;28;20033;-83
2023/12/31 11:26:37;;;;;;;2.70;1.30;;;10.10;99.90;;;;;;5003713;28;20041;-84
2023/12/31 11:29:09;;;;;;;3.30;0.90;;;10.00;99.90;;;;;;5003760;28;20026;-83
2023/12/31 11:31:40;;;;;;;4.03;1.10;;;10.00;99.90;;;;;;5004106;28;20044;-88
2023/12/31 11:34:05;;;;;;;4.50;1.47;;;10.00;99.90;;;;;;5004048;28;20025;-84
2023/12/31 11:36:31;;;;;;;4.73;1.10;;;10.00;99.90;;;;;;5003296;28;20017;-85
2023/12/31 11:39:00;;;;;;;3.85;1.10;;;10.00;99.90;;;;;;4999971;28;20050;-84
2023/12/31 11:41:39;;;;;;;4.93;1.50;;;10.00;99.90;;;;;;5000190;28;20085;-83
2023/12/31 11:44:04;;;;;;;12.93;8.17;;;10.00;99.90;;;;;;5000701;28;20058;-89
2023/12/31 11:46:39;;;;;;;11.80;6.30;;;10.10;99.90;;;;;;5000086;28;20447;-87
2023/12/31 11:49:05;;;;;;;4.67;1.70;;;10.00;99.90;;;;;;5000898;28;20049;-84
2023/12/31 11:51:54;;;;;;;4.37;1.13;;;10.00;99.90;;;;;;5000040;28;20051;-85
2023/12/31 11:54:40;;;;;;;1.97;0.70;;;10.00;99.90;;;;;;5000698;28;20019;-85
2023/12/31 11:57:08;;;;;;;3.22;0.60;;;9.90;99.90;;;;;;4999751;28;20023;-84
2023/12/31 11:59:35;;;;;;;4.40;0.77;;;10.00;99.90;;;;;;5000277;28;20049;-85
2023/12/31 12:02:03;;;;;;;4.15;0.82;;;10.20;99.90;;;;;;5000571;28;20023;-84
2023/12/31 12:04:29;;;;;;;2.63;0.60;;;10.40;99.90;;;;;;5000332;28;20061;-83
2023/12/31 12:06:55;;;;;;;3.70;0.88;;;10.40;99.90;;;;;;5000275;28;20038;-86
2023/12/31 12:09:39;;;;;;;3.50;0.50;;;10.30;99.90;;;;;;5000426;28;20022;-85
2023/12/31 12:12:08;;;;;;;3.50;0.60;;;10.30;99.90;;;;;;5000143;28;20018;-85
2023/12/31 12:14:34;;;;;;;5.88;1.00;;;10.40;99.90;;;;;;5000271;28;20557;-84
2023/12/31 12:17:00;;;;;;;5.03;0.73;;;10.40;99.90;;;;;;4999965;28;20046;-84
2023/12/31 12:19:27;;;;;;;6.85;2.30;;;10.40;99.90;;;;;;5000596;28;20054;-85
2023/12/31 12:21:53;;;;;;;4.60;1.70;;;10.40;99.90;;;;;;4999841;28;20054;-85
2023/12/31 12:24:19;;;;;;;6.90;1.38;;;10.40;99.90;;;;;;5000457;28;20018;-85
2023/12/31 12:26:49;;;;;;;2.97;0.88;;;10.70;99.90;;;;;;5000068;28;20050;-84
2023/12/31 12:29:16;;;;;;;2.95;0.95;;;11.20;99.90;;;;;;4999848;28;20030;-85
2023/12/31 12:31:47;;;;;;;2.05;0.70;;;11.80;99.90;;;;;;5000441;28;20130;-85
2023/12/31 12:34:15;;;;;;;4.50;1.50;;;12.30;99.90;;;;;;4999221;28;20073;-84
2023/12/31 12:36:46;;;;;;;4.70;1.10;;;12.50;99.90;;;;;;4999961;28;20030;-84
2023/12/31 12:39:20;;;;;;;8.18;2.60;;;12.50;99.30;;;;;;4999790;28;20119;-85
2023/12/31 12:41:50;;;;;;;4.72;1.10;;;12.50;98.30;;;;;;4999956;28;20030;-85
2023/12/31 12:44:18;;;;;;;3.88;0.40;;;12.40;96.80;;;;;;5000436;28;20037;-85
2023/12/31 12:46:45;;;;;;;2.03;0.43;;;12.20;94.60;;;;;;4999666;28;20049;-85
2023/12/31 12:49:12;;;;;;;3.75;0.60;;;12.10;94.50;;;;;;4999653;28;20046;-86
2023/12/31 12:51:39;;;;;;;3.42;0.60;;;11.90;94.50;;;;;;5000008;28;20026;-85